sensor_id;sensor_type;location;lat;lon;timestamp;temperature;humidity
37646;DHT22;23489;49.600;6.138;2022-08-02T00:01:23;17.30;99.90
37646;DHT22;23489;49.600;6.138;2022-08-02T00:03:49;17.30;99.90
37646;DHT22;23489;49.600;6.138;2022-08-02T00:06:14;17.30;99.90
37646;DHT22;23489;49.600;6.138;2022-08-02T00:08:40;17.30;99.90
37646;DHT22;23489;49.600;6.138;2022-08-02T00:11:05;17.30;99.90
37646;DHT22;23489;49.600;6.138;2022-08-02T00:13:31;17.40;99.90
37646;DHT22;23489;49.600;6.138;2022-08-02T00:15:56;17.30;99.90
37646;DHT22;23489;49.600;6.138;2022-08-02T00:18:22;17.30;99.90
37646;DHT22;23489;49.600;6.138;2022-08-02T00:20:47;17.30;99.90
37646;DHT22;23489;49.600;6.138;2022-08-02T00:23:13;17.30;99.90
37646;DHT22;23489;49.600;6.138;2022-08-02T00:25:39;17.30;99.90
37646;DHT22;23489;49.600;6.138;2022-08-02T00:28:04;17.30;99.90
37646;DHT22;23489;49.600;6.138;2022-08-02T00:30:30;17.30;99.90
37646;DHT22;23489;49.600;6.138;2022-08-02T00:32:55;17.30;99.90
37646;DHT22;23489;49.600;6.138;2022-08-02T00:35:21;17.30;99.90
37646;DHT22;23489;49.600;6.138;2022-08-02T00:37:46;17.30;99.90
37646;DHT22;23489;49.600;6.138;2022-08-02T00:40:12;17.30;99.90
37646;DHT22;23489;49.600;6.138;2022-08-02T00:42:38;17.20;99.90
37646;DHT22;23489;49.600;6.138;2022-08-02T00:45:04;17.20;99.90
37646;DHT22;23489;49.600;6.138;2022-08-02T00:47:30;17.20;99.90
37646;DHT22;23489;49.600;6.138;2022-08-02T00:49:55;17.20;99.90
37646;DHT22;23489;49.600;6.138;2022-08-02T00:52:21;17.20;99.90
37646;DHT22;23489;49.600;6.138;2022-08-02T00:54:47;17.10;99.90
37646;DHT22;23489;49.600;6.138;2022-08-02T00:57:13;17.10;99.90
37646;DHT22;23489;49.600;6.138;2022-08-02T00:59:38;17.10;99.90
37646;DHT22;23489;49.600;6.138;2022-08-02T01:02:06;17.10;99.90
37646;DHT22;23489;49.600;6.138;2022-08-02T01:04:32;17.10;99.90
37646;DHT22;23489;49.600;6.138;2022-08-02T01:06:58;17.10;99.90
37646;DHT22;23489;49.600;6.138;2022-08-02T01:09:23;17.10;99.90
37646;DHT22;23489;49.600;6.138;2022-08-02T01:11:49;17.00;99.90
37646;DHT22;23489;49.600;6.138;2022-08-02T01:14:15;17.00;99.90
37646;DHT22;23489;49.600;6.138;2022-08-02T01:16:47;17.00;99.90
37646;DHT22;23489;49.600;6.138;2022-08-02T01:19:32;17.00;99.90
37646;DHT22;23489;49.600;6.138;2022-08-02T01:24:36;17.00;99.90
37646;DHT22;23489;49.600;6.138;2022-08-02T01:27:17;17.00;99.90
37646;DHT22;23489;49.600;6.138;2022-08-02T01:29:47;16.90;99.90
37646;DHT22;23489;49.600;6.138;2022-08-02T01:32:16;16.90;99.90
37646;DHT22;23489;49.600;6.138;2022-08-02T01:34:46;16.90;99.90
37646;DHT22;23489;49.600;6.138;2022-08-02T01:37:23;16.90;99.90
37646;DHT22;23489;49.600;6.138;2022-08-02T01:39:54;16.80;99.90
37646;DHT22;23489;49.600;6.138;2022-08-02T01:42:22;16.80;99.90
37646;DHT22;23489;49.600;6.138;2022-08-02T01:44:49;16.80;99.90
37646;DHT22;23489;49.600;6.138;2022-08-02T01:47:16;16.80;99.90
37646;DHT22;23489;49.600;6.138;2022-08-02T01:49:44;16.70;99.90
37646;DHT22;23489;49.600;6.138;2022-08-02T01:52:10;16.70;99.90
37646;DHT22;23489;49.600;6.138;2022-08-02T01:54:51;16.70;99.90
37646;DHT22;23489;49.600;6.138;2022-08-02T01:57:17;16.70;99.90
37646;DHT22;23489;49.600;6.138;2022-08-02T01:59:45;16.70;99.90
37646;DHT22;23489;49.600;6.138;2022-08-02T02:02:12;16.70;99.90
37646;DHT22;23489;49.600;6.138;2022-08-02T02:04:39;16.70;99.90
37646;DHT22;23489;49.600;6.138;2022-08-02T02:07:05;16.70;99.90
37646;DHT22;23489;49.600;6.138;2022-08-02T02:09:33;16.70;99.90
37646;DHT22;23489;49.600;6.138;2022-08-02T02:12:00;16.70;99.90
37646;DHT22;23489;49.600;6.138;2022-08-02T02:14:26;16.60;99.90
37646;DHT22;23489;49.600;6.138;2022-08-02T02:16:53;16.60;99.90
37646;DHT22;23489;49.600;6.138;2022-08-02T02:19:20;16.50;99.90
37646;DHT22;23489;49.600;6.138;2022-08-02T02:21:46;16.60;99.90
37646;DHT22;23489;49.600;6.138;2022-08-02T02:24:12;16.50;99.90
37646;DHT22;23489;49.600;6.138;2022-08-02T02:26:37;16.60;99.90
37646;DHT22;23489;49.600;6.138;2022-08-02T02:29:04;16.60;99.90
37646;DHT22;23489;49.600;6.138;2022-08-02T02:31:37;16.60;99.90
37646;DHT22;23489;49.600;6.138;2022-08-02T02:34:03;16.60;99.90
37646;DHT22;23489;49.600;6.138;2022-08-02T02:36:30;16.50;99.90
37646;DHT22;23489;49.600;6.138;2022-08-02T02:38:58;16.50;99.90
37646;DHT22;23489;49.600;6.138;2022-08-02T02:41:25;16.50;99.90
37646;DHT22;23489;49.600;6.138;2022-08-02T02:43:53;16.50;99.90
37646;DHT22;23489;49.600;6.138;2022-08-02T02:46:18;16.50;99.90
37646;DHT22;23489;49.600;6.138;2022-08-02T02:48:46;16.50;99.90
37646;DHT22;23489;49.600;6.138;2022-08-02T02:51:11;16.50;99.90
37646;DHT22;23489;49.600;6.138;2022-08-02T02:53:37;16.50;99.90
37646;DHT22;23489;49.600;6.138;2022-08-02T02:56:05;16.50;99.90
37646;DHT22;23489;49.600;6.138;2022-08-02T02:58:31;16.50;99.90
37646;DHT22;23489;49.600;6.138;2022-08-02T03:00:56;16.40;99.90
37646;DHT22;23489;49.600;6.138;2022-08-02T03:03:40;16.40;99.90
37646;DHT22;23489;49.600;6.138;2022-08-02T03:06:07;16.40;99.90
37646;DHT22;23489;49.600;6.138;2022-08-02T03:08:33;16.30;99.90
37646;DHT22;23489;49.600;6.138;2022-08-02T03:10:59;16.30;99.90
37646;DHT22;23489;49.600;6.138;2022-08-02T03:13:25;16.30;99.90
37646;DHT22;23489;49.600;6.138;2022-08-02T03:15:50;16.30;99.90
37646;DHT22;23489;49.600;6.138;2022-08-02T03:18:34;16.30;99.90
37646;DHT22;23489;49.600;6.138;2022-08-02T03:21:00;16.30;99.90
37646;DHT22;23489;49.600;6.138;2022-08-02T03:23:26;16.30;99.90
37646;DHT22;23489;49.600;6.138;2022-08-02T03:25:52;16.30;99.90
37646;DHT22;23489;49.600;6.138;2022-08-02T03:28:18;16.30;99.90
37646;DHT22;23489;49.600;6.138;2022-08-02T03:30:43;16.30;99.90
37646;DHT22;23489;49.600;6.138;2022-08-02T03:33:09;16.30;99.90
37646;DHT22;23489;49.600;6.138;2022-08-02T03:35:35;16.30;99.90
37646;DHT22;23489;49.600;6.138;2022-08-02T03:38:01;16.30;99.90
37646;DHT22;23489;49.600;6.138;2022-08-02T03:40:28;16.30;99.90
37646;DHT22;23489;49.600;6.138;2022-08-02T03:42:54;16.30;99.90
37646;DHT22;23489;49.600;6.138;2022-08-02T03:45:21;16.30;99.90
37646;DHT22;23489;49.600;6.138;2022-08-02T03:47:47;16.30;99.90
37646;DHT22;23489;49.600;6.138;2022-08-02T03:50:13;16.30;99.90
37646;DHT22;23489;49.600;6.138;2022-08-02T03:52:39;16.20;99.90
37646;DHT22;23489;49.600;6.138;2022-08-02T03:55:06;16.20;99.90
37646;DHT22;23489;49.600;6.138;2022-08-02T03:57:32;16.20;99.90
37646;DHT22;23489;49.600;6.138;2022-08-02T03:59:57;16.20;99.90
37646;DHT22;23489;49.600;6.138;2022-08-02T04:02:23;16.20;99.90
37646;DHT22;23489;49.600;6.138;2022-08-02T04:04:48;16.20;99.90
37646;DHT22;23489;49.600;6.138;2022-08-02T04:07:14;16.20;99.90
37646;DHT22;23489;49.600;6.138;2022-08-02T04:09:39;16.20;99.90
37646;DHT22;23489;49.600;6.138;2022-08-02T04:12:05;16.30;99.90
37646;DHT22;23489;49.600;6.138;2022-08-02T04:14:31;16.20;99.90
37646;DHT22;23489;49.600;6.138;2022-08-02T04:16:58;16.20;99.90
37646;DHT22;23489;49.600;6.138;2022-08-02T04:19:27;16.20;99.90
37646;DHT22;23489;49.600;6.138;2022-08-02T04:21:55;16.20;99.90
37646;DHT22;23489;49.600;6.138;2022-08-02T04:24:24;16.20;99.90
37646;DHT22;23489;49.600;6.138;2022-08-02T04:26:54;16.20;99.90
37646;DHT22;23489;49.600;6.138;2022-08-02T04:29:20;16.20;99.90
37646;DHT22;23489;49.600;6.138;2022-08-02T04:31:46;16.20;99.90
37646;DHT22;23489;49.600;6.138;2022-08-02T04:34:12;16.20;99.90
37646;DHT22;23489;49.600;6.138;2022-08-02T04:36:38;16.20;99.90
37646;DHT22;23489;49.600;6.138;2022-08-02T04:39:04;16.20;99.90
37646;DHT22;23489;49.600;6.138;2022-08-02T04:41:39;16.20;99.90
37646;DHT22;23489;49.600;6.138;2022-08-02T04:44:05;16.20;99.90
37646;DHT22;23489;49.600;6.138;2022-08-02T04:46:31;16.20;99.90
37646;DHT22;23489;49.600;6.138;2022-08-02T04:48:57;16.20;99.90
37646;DHT22;23489;49.600;6.138;2022-08-02T04:51:22;16.20;99.90
37646;DHT22;23489;49.600;6.138;2022-08-02T04:53:48;16.30;99.90
37646;DHT22;23489;49.600;6.138;2022-08-02T04:56:13;16.20;99.90
37646;DHT22;23489;49.600;6.138;2022-08-02T04:58:39;16.30;99.90
37646;DHT22;23489;49.600;6.138;2022-08-02T05:01:04;16.40;99.90
37646;DHT22;23489;49.600;6.138;2022-08-02T05:03:30;16.50;99.90
37646;DHT22;23489;49.600;6.138;2022-08-02T05:05:55;16.60;99.90
37646;DHT22;23489;49.600;6.138;2022-08-02T05:08:21;16.70;99.90
37646;DHT22;23489;49.600;6.138;2022-08-02T05:10:46;16.80;99.90
37646;DHT22;23489;49.600;6.138;2022-08-02T05:13:12;16.80;99.90
37646;DHT22;23489;49.600;6.138;2022-08-02T05:15:37;16.80;99.90
37646;DHT22;23489;49.600;6.138;2022-08-02T05:18:03;16.80;99.90
37646;DHT22;23489;49.600;6.138;2022-08-02T05:20:29;16.90;99.90
37646;DHT22;23489;49.600;6.138;2022-08-02T05:22:54;17.00;99.90
37646;DHT22;23489;49.600;6.138;2022-08-02T05:25:20;17.10;99.90
37646;DHT22;23489;49.600;6.138;2022-08-02T05:27:46;17.20;99.90
37646;DHT22;23489;49.600;6.138;2022-08-02T05:30:11;17.30;99.90
37646;DHT22;23489;49.600;6.138;2022-08-02T05:32:47;17.30;99.90
37646;DHT22;23489;49.600;6.138;2022-08-02T05:35:15;17.40;99.90
37646;DHT22;23489;49.600;6.138;2022-08-02T05:37:41;17.50;99.90
37646;DHT22;23489;49.600;6.138;2022-08-02T05:40:07;17.50;99.90
37646;DHT22;23489;49.600;6.138;2022-08-02T05:42:33;17.60;99.90
37646;DHT22;23489;49.600;6.138;2022-08-02T05:44:58;17.80;99.90
37646;DHT22;23489;49.600;6.138;2022-08-02T05:47:24;17.90;99.90
37646;DHT22;23489;49.600;6.138;2022-08-02T05:49:50;18.10;99.90
37646;DHT22;23489;49.600;6.138;2022-08-02T05:52:19;18.20;99.90
37646;DHT22;23489;49.600;6.138;2022-08-02T05:54:48;18.30;99.90
37646;DHT22;23489;49.600;6.138;2022-08-02T06:05:02;18.80;99.90
37646;DHT22;23489;49.600;6.138;2022-08-02T06:07:29;19.00;99.90
37646;DHT22;23489;49.600;6.138;2022-08-02T06:09:54;19.10;99.90
37646;DHT22;23489;49.600;6.138;2022-08-02T06:12:20;19.20;99.90
37646;DHT22;23489;49.600;6.138;2022-08-02T06:14:49;19.30;99.90
37646;DHT22;23489;49.600;6.138;2022-08-02T06:17:15;19.40;99.90
37646;DHT22;23489;49.600;6.138;2022-08-02T06:19:41;19.60;99.90
37646;DHT22;23489;49.600;6.138;2022-08-02T06:22:07;19.80;99.90
37646;DHT22;23489;49.600;6.138;2022-08-02T06:24:42;20.00;99.90
37646;DHT22;23489;49.600;6.138;2022-08-02T06:27:09;20.10;99.90
37646;DHT22;23489;49.600;6.138;2022-08-02T06:29:35;20.20;99.90
37646;DHT22;23489;49.600;6.138;2022-08-02T06:32:01;20.60;99.90
37646;DHT22;23489;49.600;6.138;2022-08-02T06:34:27;21.20;99.90
37646;DHT22;23489;49.600;6.138;2022-08-02T06:36:59;22.10;99.90
37646;DHT22;23489;49.600;6.138;2022-08-02T06:39:31;23.40;99.90
37646;DHT22;23489;49.600;6.138;2022-08-02T06:44:35;24.80;99.90
37646;DHT22;23489;49.600;6.138;2022-08-02T06:47:02;27.10;99.90
37646;DHT22;23489;49.600;6.138;2022-08-02T06:49:28;28.50;99.70
37646;DHT22;23489;49.600;6.138;2022-08-02T06:51:54;29.70;97.00
37646;DHT22;23489;49.600;6.138;2022-08-02T06:54:19;30.60;93.90
37646;DHT22;23489;49.600;6.138;2022-08-02T06:56:47;31.00;92.10
37646;DHT22;23489;49.600;6.138;2022-08-02T06:59:12;31.30;90.90
37646;DHT22;23489;49.600;6.138;2022-08-02T07:01:38;31.40;89.60
37646;DHT22;23489;49.600;6.138;2022-08-02T07:04:04;31.20;88.20
37646;DHT22;23489;49.600;6.138;2022-08-02T07:06:29;31.10;88.30
37646;DHT22;23489;49.600;6.138;2022-08-02T07:08:55;31.20;86.90
37646;DHT22;23489;49.600;6.138;2022-08-02T07:11:21;31.90;84.90
37646;DHT22;23489;49.600;6.138;2022-08-02T07:13:48;33.10;82.30
37646;DHT22;23489;49.600;6.138;2022-08-02T07:16:13;33.50;79.00
37646;DHT22;23489;49.600;6.138;2022-08-02T07:18:39;33.70;75.90
37646;DHT22;23489;49.600;6.138;2022-08-02T07:21:05;33.60;75.80
37646;DHT22;23489;49.600;6.138;2022-08-02T07:23:31;34.20;73.90
37646;DHT22;23489;49.600;6.138;2022-08-02T07:25:57;34.30;71.70
37646;DHT22;23489;49.600;6.138;2022-08-02T07:28:23;33.90;72.00
37646;DHT22;23489;49.600;6.138;2022-08-02T07:30:49;34.10;71.10
37646;DHT22;23489;49.600;6.138;2022-08-02T07:33:14;33.90;70.90
37646;DHT22;23489;49.600;6.138;2022-08-02T07:35:40;33.70;70.60
37646;DHT22;23489;49.600;6.138;2022-08-02T07:38:06;33.40;71.30
37646;DHT22;23489;49.600;6.138;2022-08-02T07:40:32;33.40;70.70
37646;DHT22;23489;49.600;6.138;2022-08-02T07:42:58;32.90;72.00
37646;DHT22;23489;49.600;6.138;2022-08-02T07:45:25;33.30;71.30
37646;DHT22;23489;49.600;6.138;2022-08-02T07:47:51;34.30;69.80
37646;DHT22;23489;49.600;6.138;2022-08-02T07:50:19;34.20;69.20
37646;DHT22;23489;49.600;6.138;2022-08-02T07:52:45;34.60;69.00
37646;DHT22;23489;49.600;6.138;2022-08-02T07:55:12;35.60;66.50
37646;DHT22;23489;49.600;6.138;2022-08-02T07:57:39;35.80;65.00
37646;DHT22;23489;49.600;6.138;2022-08-02T08:00:06;35.30;64.40
37646;DHT22;23489;49.600;6.138;2022-08-02T08:02:37;35.90;62.90
37646;DHT22;23489;49.600;6.138;2022-08-02T08:05:03;36.60;62.10
37646;DHT22;23489;49.600;6.138;2022-08-02T08:07:29;36.20;61.60
37646;DHT22;23489;49.600;6.138;2022-08-02T08:09:55;36.70;60.30
37646;DHT22;23489;49.600;6.138;2022-08-02T08:12:21;37.40;59.30
37646;DHT22;23489;49.600;6.138;2022-08-02T08:14:47;37.20;58.10
37646;DHT22;23489;49.600;6.138;2022-08-02T08:17:13;36.70;57.90
37646;DHT22;23489;49.600;6.138;2022-08-02T08:19:39;36.00;58.80
37646;DHT22;23489;49.600;6.138;2022-08-02T08:22:04;35.60;59.70
37646;DHT22;23489;49.600;6.138;2022-08-02T08:24:30;36.30;58.70
37646;DHT22;23489;49.600;6.138;2022-08-02T08:26:56;36.70;57.40
37646;DHT22;23489;49.600;6.138;2022-08-02T08:29:22;37.00;56.90
37646;DHT22;23489;49.600;6.138;2022-08-02T08:31:48;37.10;56.60
37646;DHT22;23489;49.600;6.138;2022-08-02T08:34:14;36.90;56.30
37646;DHT22;23489;49.600;6.138;2022-08-02T08:36:41;37.30;56.00
37646;DHT22;23489;49.600;6.138;2022-08-02T08:39:07;37.70;55.00
37646;DHT22;23489;49.600;6.138;2022-08-02T08:41:34;37.50;54.60
37646;DHT22;23489;49.600;6.138;2022-08-02T08:44:00;36.70;55.40
37646;DHT22;23489;49.600;6.138;2022-08-02T08:46:28;37.30;54.90
37646;DHT22;23489;49.600;6.138;2022-08-02T08:49:04;37.20;54.20
37646;DHT22;23489;49.600;6.138;2022-08-02T08:51:35;37.00;54.40
37646;DHT22;23489;49.600;6.138;2022-08-02T08:54:02;36.70;54.50
37646;DHT22;23489;49.600;6.138;2022-08-02T08:56:33;37.20;54.20
37646;DHT22;23489;49.600;6.138;2022-08-02T08:59:03;37.20;53.90
37646;DHT22;23489;49.600;6.138;2022-08-02T09:01:30;37.20;54.20
37646;DHT22;23489;49.600;6.138;2022-08-02T09:03:56;37.10;53.60
37646;DHT22;23489;49.600;6.138;2022-08-02T09:06:22;38.40;52.40
37646;DHT22;23489;49.600;6.138;2022-08-02T09:08:48;38.20;52.20
37646;DHT22;23489;49.600;6.138;2022-08-02T09:11:19;38.80;51.10
37646;DHT22;23489;49.600;6.138;2022-08-02T09:13:55;38.90;50.70
37646;DHT22;23489;49.600;6.138;2022-08-02T09:16:34;38.20;51.60
37646;DHT22;23489;49.600;6.138;2022-08-02T09:19:19;38.10;52.00
37646;DHT22;23489;49.600;6.138;2022-08-02T09:21:48;37.30;52.30
37646;DHT22;23489;49.600;6.138;2022-08-02T09:24:19;37.00;52.60
37646;DHT22;23489;49.600;6.138;2022-08-02T09:26:45;37.40;52.00
37646;DHT22;23489;49.600;6.138;2022-08-02T09:29:12;37.30;52.60
37646;DHT22;23489;49.600;6.138;2022-08-02T09:31:39;37.40;52.00
37646;DHT22;23489;49.600;6.138;2022-08-02T09:34:06;36.40;53.20
37646;DHT22;23489;49.600;6.138;2022-08-02T09:36:41;35.50;54.10
37646;DHT22;23489;49.600;6.138;2022-08-02T09:39:09;35.10;54.30
37646;DHT22;23489;49.600;6.138;2022-08-02T09:41:43;36.10;53.30
37646;DHT22;23489;49.600;6.138;2022-08-02T09:44:11;36.80;51.90
37646;DHT22;23489;49.600;6.138;2022-08-02T09:46:39;37.40;51.00
37646;DHT22;23489;49.600;6.138;2022-08-02T09:49:07;37.50;50.50
37646;DHT22;23489;49.600;6.138;2022-08-02T09:51:39;37.60;50.10
37646;DHT22;23489;49.600;6.138;2022-08-02T09:54:09;37.90;50.10
37646;DHT22;23489;49.600;6.138;2022-08-02T09:56:41;37.20;50.30
37646;DHT22;23489;49.600;6.138;2022-08-02T09:59:08;36.90;50.50
37646;DHT22;23489;49.600;6.138;2022-08-02T10:01:34;36.00;51.90
37646;DHT22;23489;49.600;6.138;2022-08-02T10:04:02;35.00;53.60
37646;DHT22;23489;49.600;6.138;2022-08-02T10:06:29;35.50;53.30
37646;DHT22;23489;49.600;6.138;2022-08-02T10:09:02;35.30;53.60
37646;DHT22;23489;49.600;6.138;2022-08-02T10:11:46;34.70;54.70
37646;DHT22;23489;49.600;6.138;2022-08-02T10:14:13;35.10;53.90
37646;DHT22;23489;49.600;6.138;2022-08-02T10:16:41;35.70;52.70
37646;DHT22;23489;49.600;6.138;2022-08-02T10:19:09;36.30;52.80
37646;DHT22;23489;49.600;6.138;2022-08-02T10:21:57;37.10;51.70
37646;DHT22;23489;49.600;6.138;2022-08-02T10:24:30;38.20;50.40
37646;DHT22;23489;49.600;6.138;2022-08-02T10:26:58;38.20;49.50
37646;DHT22;23489;49.600;6.138;2022-08-02T10:29:32;37.70;50.10
37646;DHT22;23489;49.600;6.138;2022-08-02T10:32:05;37.30;49.50
37646;DHT22;23489;49.600;6.138;2022-08-02T10:34:36;36.90;49.80
37646;DHT22;23489;49.600;6.138;2022-08-02T10:37:07;36.80;49.70
37646;DHT22;23489;49.600;6.138;2022-08-02T10:39:44;37.20;50.00
37646;DHT22;23489;49.600;6.138;2022-08-02T10:42:11;37.20;48.90
37646;DHT22;23489;49.600;6.138;2022-08-02T10:44:37;37.00;49.50
37646;DHT22;23489;49.600;6.138;2022-08-02T10:47:20;36.20;50.50
37646;DHT22;23489;49.600;6.138;2022-08-02T10:52:15;33.40;54.20
37646;DHT22;23489;49.600;6.138;2022-08-02T10:54:50;32.50;55.00
37646;DHT22;23489;49.600;6.138;2022-08-02T10:59:53;31.00;57.30
37646;DHT22;23489;49.600;6.138;2022-08-02T11:02:43;30.40;58.40
37646;DHT22;23489;49.600;6.138;2022-08-02T11:05:15;29.60;60.00
37646;DHT22;23489;49.600;6.138;2022-08-02T11:07:46;29.40;60.90
37646;DHT22;23489;49.600;6.138;2022-08-02T11:13:05;29.40;60.20
37646;DHT22;23489;49.600;6.138;2022-08-02T11:16:16;29.70;60.40
37646;DHT22;23489;49.600;6.138;2022-08-02T11:18:17;30.10;59.60
37646;DHT22;23489;49.600;6.138;2022-08-02T11:20:43;30.40;58.90
37646;DHT22;23489;49.600;6.138;2022-08-02T11:23:37;30.00;57.80
37646;DHT22;23489;49.600;6.138;2022-08-02T11:26:40;29.60;58.70
37646;DHT22;23489;49.600;6.138;2022-08-02T11:29:06;29.60;58.40
37646;DHT22;23489;49.600;6.138;2022-08-02T11:31:38;29.50;59.20
37646;DHT22;23489;49.600;6.138;2022-08-02T11:34:04;29.40;59.50
37646;DHT22;23489;49.600;6.138;2022-08-02T11:36:29;29.20;59.80
37646;DHT22;23489;49.600;6.138;2022-08-02T11:39:11;29.10;60.50
37646;DHT22;23489;49.600;6.138;2022-08-02T11:41:37;28.60;61.50
37646;DHT22;23489;49.600;6.138;2022-08-02T11:44:03;28.90;61.30
37646;DHT22;23489;49.600;6.138;2022-08-02T11:46:29;28.90;60.50
37646;DHT22;23489;49.600;6.138;2022-08-02T11:48:54;28.40;60.40
37646;DHT22;23489;49.600;6.138;2022-08-02T11:51:20;28.40;60.50
37646;DHT22;23489;49.600;6.138;2022-08-02T11:53:47;28.80;59.80
37646;DHT22;23489;49.600;6.138;2022-08-02T11:56:14;28.90;59.80
37646;DHT22;23489;49.600;6.138;2022-08-02T11:58:40;29.20;59.70
37646;DHT22;23489;49.600;6.138;2022-08-02T12:01:05;29.10;59.70
37646;DHT22;23489;49.600;6.138;2022-08-02T12:03:37;28.80;60.00
37646;DHT22;23489;49.600;6.138;2022-08-02T12:06:04;28.80;60.60
37646;DHT22;23489;49.600;6.138;2022-08-02T12:08:35;28.90;60.70
37646;DHT22;23489;49.600;6.138;2022-08-02T12:11:01;29.00;60.40
37646;DHT22;23489;49.600;6.138;2022-08-02T12:13:27;28.80;60.00
37646;DHT22;23489;49.600;6.138;2022-08-02T12:15:52;28.80;59.70
37646;DHT22;23489;49.600;6.138;2022-08-02T12:18:21;28.80;59.60
37646;DHT22;23489;49.600;6.138;2022-08-02T12:21:22;29.00;59.30
37646;DHT22;23489;49.600;6.138;2022-08-02T12:23:48;28.90;59.20
37646;DHT22;23489;49.600;6.138;2022-08-02T12:26:14;29.20;57.60
37646;DHT22;23489;49.600;6.138;2022-08-02T12:28:40;29.40;56.40
37646;DHT22;23489;49.600;6.138;2022-08-02T12:31:06;29.60;56.70
37646;DHT22;23489;49.600;6.138;2022-08-02T12:33:48;29.70;56.80
37646;DHT22;23489;49.600;6.138;2022-08-02T12:36:15;29.50;57.10
37646;DHT22;23489;49.600;6.138;2022-08-02T12:38:56;29.50;56.40
37646;DHT22;23489;49.600;6.138;2022-08-02T12:41:22;29.50;56.70
37646;DHT22;23489;49.600;6.138;2022-08-02T12:43:49;29.60;57.90
37646;DHT22;23489;49.600;6.138;2022-08-02T12:46:15;29.70;57.90
37646;DHT22;23489;49.600;6.138;2022-08-02T12:48:41;29.70;57.10
37646;DHT22;23489;49.600;6.138;2022-08-02T12:51:17;29.60;56.80
37646;DHT22;23489;49.600;6.138;2022-08-02T12:53:43;29.60;57.10
37646;DHT22;23489;49.600;6.138;2022-08-02T12:56:08;29.80;57.50
37646;DHT22;23489;49.600;6.138;2022-08-02T12:58:47;29.90;57.40
37646;DHT22;23489;49.600;6.138;2022-08-02T13:01:13;30.10;56.90
37646;DHT22;23489;49.600;6.138;2022-08-02T13:03:44;30.10;56.80
37646;DHT22;23489;49.600;6.138;2022-08-02T13:06:10;30.10;56.70
37646;DHT22;23489;49.600;6.138;2022-08-02T13:08:35;30.20;56.60
37646;DHT22;23489;49.600;6.138;2022-08-02T13:11:01;30.10;55.30
37646;DHT22;23489;49.600;6.138;2022-08-02T13:13:26;29.90;55.60
37646;DHT22;23489;49.600;6.138;2022-08-02T13:15:52;30.00;55.20
37646;DHT22;23489;49.600;6.138;2022-08-02T13:18:17;30.20;54.60
37646;DHT22;23489;49.600;6.138;2022-08-02T13:20:43;30.40;54.60
37646;DHT22;23489;49.600;6.138;2022-08-02T13:23:08;30.60;53.30
37646;DHT22;23489;49.600;6.138;2022-08-02T13:25:34;30.80;52.80
37646;DHT22;23489;49.600;6.138;2022-08-02T13:27:59;31.00;53.40
37646;DHT22;23489;49.600;6.138;2022-08-02T13:30:25;31.10;54.00
37646;DHT22;23489;49.600;6.138;2022-08-02T13:32:51;31.20;54.60
37646;DHT22;23489;49.600;6.138;2022-08-02T13:35:17;30.80;55.70
37646;DHT22;23489;49.600;6.138;2022-08-02T13:37:42;30.90;56.10
37646;DHT22;23489;49.600;6.138;2022-08-02T13:40:09;30.90;55.90
37646;DHT22;23489;49.600;6.138;2022-08-02T13:42:35;30.70;56.20
37646;DHT22;23489;49.600;6.138;2022-08-02T13:45:01;30.60;56.10
37646;DHT22;23489;49.600;6.138;2022-08-02T13:47:26;30.20;56.90
37646;DHT22;23489;49.600;6.138;2022-08-02T13:49:52;29.70;57.20
37646;DHT22;23489;49.600;6.138;2022-08-02T13:52:17;29.90;57.60
37646;DHT22;23489;49.600;6.138;2022-08-02T13:54:43;30.30;57.10
37646;DHT22;23489;49.600;6.138;2022-08-02T13:57:09;30.40;56.40
37646;DHT22;23489;49.600;6.138;2022-08-02T13:59:34;30.40;56.50
37646;DHT22;23489;49.600;6.138;2022-08-02T14:02:00;30.40;56.50
37646;DHT22;23489;49.600;6.138;2022-08-02T14:04:26;30.70;56.50
37646;DHT22;23489;49.600;6.138;2022-08-02T14:06:52;30.90;56.40
37646;DHT22;23489;49.600;6.138;2022-08-02T14:09:17;30.90;55.70
37646;DHT22;23489;49.600;6.138;2022-08-02T14:11:44;30.80;55.70
37646;DHT22;23489;49.600;6.138;2022-08-02T14:14:09;30.60;56.30
37646;DHT22;23489;49.600;6.138;2022-08-02T14:16:35;30.30;56.20
37646;DHT22;23489;49.600;6.138;2022-08-02T14:19:00;29.90;57.30
37646;DHT22;23489;49.600;6.138;2022-08-02T14:21:26;30.10;57.60
37646;DHT22;23489;49.600;6.138;2022-08-02T14:23:51;30.20;57.40
37646;DHT22;23489;49.600;6.138;2022-08-02T14:26:17;30.00;57.50
37646;DHT22;23489;49.600;6.138;2022-08-02T14:28:43;30.10;57.20
37646;DHT22;23489;49.600;6.138;2022-08-02T14:31:08;30.30;57.20
37646;DHT22;23489;49.600;6.138;2022-08-02T14:33:34;29.90;57.60
37646;DHT22;23489;49.600;6.138;2022-08-02T14:35:59;30.10;57.50
37646;DHT22;23489;49.600;6.138;2022-08-02T14:38:25;30.10;57.50
37646;DHT22;23489;49.600;6.138;2022-08-02T14:40:50;29.80;57.80
37646;DHT22;23489;49.600;6.138;2022-08-02T14:43:16;29.90;58.00
37646;DHT22;23489;49.600;6.138;2022-08-02T14:46:00;30.20;57.80
37646;DHT22;23489;49.600;6.138;2022-08-02T14:48:27;30.10;57.40
37646;DHT22;23489;49.600;6.138;2022-08-02T14:50:52;30.10;57.40
37646;DHT22;23489;49.600;6.138;2022-08-02T14:53:18;30.10;57.50
37646;DHT22;23489;49.600;6.138;2022-08-02T14:55:43;30.10;57.10
37646;DHT22;23489;49.600;6.138;2022-08-02T14:58:09;30.20;57.00
37646;DHT22;23489;49.600;6.138;2022-08-02T15:00:35;29.90;57.50
37646;DHT22;23489;49.600;6.138;2022-08-02T15:03:00;29.90;58.10
37646;DHT22;23489;49.600;6.138;2022-08-02T15:05:26;30.00;57.80
37646;DHT22;23489;49.600;6.138;2022-08-02T15:07:51;30.00;57.70
37646;DHT22;23489;49.600;6.138;2022-08-02T15:10:17;29.90;58.10
37646;DHT22;23489;49.600;6.138;2022-08-02T15:12:43;29.70;58.30
37646;DHT22;23489;49.600;6.138;2022-08-02T15:15:08;29.60;58.20
37646;DHT22;23489;49.600;6.138;2022-08-02T15:17:34;29.70;58.10
37646;DHT22;23489;49.600;6.138;2022-08-02T15:19:59;29.80;58.10
37646;DHT22;23489;49.600;6.138;2022-08-02T15:22:25;29.90;58.20
37646;DHT22;23489;49.600;6.138;2022-08-02T15:24:50;29.90;58.40
37646;DHT22;23489;49.600;6.138;2022-08-02T15:27:16;29.90;58.60
37646;DHT22;23489;49.600;6.138;2022-08-02T15:29:43;29.80;58.60
37646;DHT22;23489;49.600;6.138;2022-08-02T15:32:08;29.40;59.30
37646;DHT22;23489;49.600;6.138;2022-08-02T15:34:34;29.50;59.20
37646;DHT22;23489;49.600;6.138;2022-08-02T15:36:59;29.50;59.30
37646;DHT22;23489;49.600;6.138;2022-08-02T15:39:25;29.40;59.50
37646;DHT22;23489;49.600;6.138;2022-08-02T15:41:50;29.40;59.50
37646;DHT22;23489;49.600;6.138;2022-08-02T15:44:16;29.40;59.30
37646;DHT22;23489;49.600;6.138;2022-08-02T15:46:41;29.40;59.40
37646;DHT22;23489;49.600;6.138;2022-08-02T15:49:07;29.50;59.50
37646;DHT22;23489;49.600;6.138;2022-08-02T15:51:33;29.50;59.60
37646;DHT22;23489;49.600;6.138;2022-08-02T15:53:58;29.60;59.40